»·PEaware :: N869BC KSBD-KRNM

N869BC :: KSBD-KRNM

FLIGHT INFORMATION

Flight Status: Arrived
Operator: Privately registered:
United States
More flights under this callsign
Pilot: Marcus R. (12677)
Aircraft: CESSNA T210 TURBO CENTURION
(T210)
More flights by this aircraft type
Origin: KSBD San Bernardino Intl
United States
Destination: KRNM Ramona
United States
More flights between these airports :: More routes between these airports
Route: PDZ V186 ROBNN V208 JLI
File this flight plan on PilotEdge
Remarks:
Altitude:
(Current/Filed)
9,000ft
Speed:
(Current/Filed)
165kts
Departed: 06-Oct-18 01:35 PM
Arrived: 06-Oct-18 02:30 PM
Distance/Time
Traveled:
65nm/0:55
Distance/Time
To Go:
Arrived

Flight Plot

Page will automatically refresh every two minutes.


Map Options




Map Legend


Flown Route
Filed Route
Departure Airport
Arrival Airport
Navaid (VOR, NDB)
Fix

Horizontal Profiles

Position Reports

Time Latitude Longitude Heading Altitude Ground
Speed
06-Oct-18 12:48 34.102166 -117.224730 94 1160ft 0kts
06-Oct-18 12:49 34.102166 -117.224730 94 1160ft 0kts
06-Oct-18 12:50 34.102166 -117.224730 94 1160ft 0kts
06-Oct-18 12:51 34.102166 -117.224730 94 1160ft 0kts
06-Oct-18 12:52 34.102166 -117.224730 94 1160ft 0kts
06-Oct-18 12:53 34.102166 -117.224730 94 1160ft 0kts
06-Oct-18 12:54 34.102166 -117.224730 94 1160ft 0kts
06-Oct-18 12:55 34.102166 -117.224730 94 1160ft 0kts
06-Oct-18 12:56 34.102166 -117.224730 94 1160ft 0kts
06-Oct-18 12:57 34.102166 -117.224730 94 1160ft 0kts
06-Oct-18 12:58 34.102166 -117.224730 94 1160ft 0kts
06-Oct-18 12:59 34.102166 -117.224730 94 1160ft 0kts
06-Oct-18 13:00 34.102166 -117.224730 94 1160ft 0kts
06-Oct-18 13:01 34.102166 -117.224730 94 1160ft 0kts
06-Oct-18 13:02 34.102166 -117.224730 94 1160ft 0kts
06-Oct-18 13:03 34.102166 -117.224730 94 1160ft 0kts
06-Oct-18 13:04 34.102166 -117.224730 94 1160ft 0kts
06-Oct-18 13:05 34.102166 -117.224730 94 1160ft 0kts
06-Oct-18 13:06 34.102166 -117.224730 94 1160ft 0kts
06-Oct-18 13:07 34.102166 -117.224730 94 1160ft 0kts
06-Oct-18 13:08 34.102166 -117.224730 94 1160ft 0kts
06-Oct-18 13:09 34.102166 -117.224730 94 1160ft 0kts
06-Oct-18 13:10 34.102166 -117.224730 94 1160ft 0kts
06-Oct-18 13:11 34.102166 -117.224730 94 1160ft 0kts
06-Oct-18 13:12 34.102166 -117.224730 94 1160ft 0kts
06-Oct-18 13:13 34.102166 -117.224730 94 1160ft 0kts
06-Oct-18 13:14 34.102166 -117.224730 94 1160ft 0kts
06-Oct-18 13:15 34.102166 -117.224730 94 1160ft 0kts
06-Oct-18 13:16 34.102166 -117.224730 94 1160ft 0kts
06-Oct-18 13:17 34.102166 -117.224730 94 1160ft 0kts
06-Oct-18 13:18 34.102166 -117.224730 94 1160ft 0kts
06-Oct-18 13:19 34.102166 -117.224730 94 1160ft 0kts
06-Oct-18 13:20 34.102166 -117.224730 94 1160ft 0kts
06-Oct-18 13:21 34.102166 -117.224730 94 1160ft 0kts
06-Oct-18 13:22 34.102166 -117.224730 94 1160ft 0kts
06-Oct-18 13:23 34.102166 -117.224730 94 1160ft 0kts
06-Oct-18 13:24 34.102166 -117.224730 94 1160ft 0kts
06-Oct-18 13:25 34.102166 -117.224730 94 1160ft 0kts
06-Oct-18 13:26 34.102166 -117.224730 94 1160ft 0kts
06-Oct-18 13:27 34.102166 -117.224730 94 1160ft 0kts
06-Oct-18 13:28 34.102166 -117.224730 93 1160ft 0kts
06-Oct-18 13:29 34.102166 -117.224729 93 1160ft 0kts
06-Oct-18 13:30 34.101135 -117.223139 86 1160ft 15kts
06-Oct-18 13:31 34.100725 -117.219724 160 1161ft 0kts
06-Oct-18 13:32 34.100725 -117.219724 161 1161ft 0kts
06-Oct-18 13:33 34.100725 -117.219724 161 1161ft 0kts
06-Oct-18 13:34 34.100725 -117.219724 161 1161ft 0kts
06-Oct-18 13:35 34.100725 -117.219724 161 1161ft 0kts
06-Oct-18 13:36 34.099488 -117.220605 251 1161ft 37kts
06-Oct-18 13:37 34.091782 -117.245943 250 2040ft 86kts
06-Oct-18 13:38 34.078398 -117.273928 224 3151ft 88kts
06-Oct-18 13:39 34.063713 -117.290963 228 3909ft 90kts
06-Oct-18 13:40 34.043376 -117.315866 236 4971ft 90kts
06-Oct-18 13:41 34.030528 -117.335794 241 5720ft 91kts
06-Oct-18 13:42 34.014790 -117.365685 248 6740ft 93kts
06-Oct-18 13:43 34.004064 -117.388551 249 7475ft 93kts
06-Oct-18 13:44 33.988335 -117.415168 240 8329ft 98kts
06-Oct-18 13:45 33.969485 -117.442247 243 8907ft 122kts
06-Oct-18 13:46 33.945817 -117.480503 240 8946ft 152kts
06-Oct-18 13:47 33.920898 -117.522090 241 8952ft 154kts
06-Oct-18 13:48 33.896412 -117.563133 240 8948ft 156kts
06-Oct-18 13:49 33.855481 -117.561531 125 8951ft 177kts
06-Oct-18 13:50 33.831461 -117.510250 116 8949ft 177kts
06-Oct-18 13:51 33.808199 -117.457848 116 8953ft 178kts
06-Oct-18 13:52 33.774219 -117.402284 141 8954ft 178kts
06-Oct-18 13:53 33.741148 -117.373074 147 8960ft 177kts
06-Oct-18 13:54 33.698989 -117.343551 156 8955ft 175kts
06-Oct-18 13:55 33.656227 -117.316067 156 8950ft 174kts
06-Oct-18 13:56 33.614566 -117.286960 148 8948ft 176kts
06-Oct-18 13:57 33.577174 -117.249143 142 8948ft 177kts
06-Oct-18 13:58 33.539064 -117.212112 147 8948ft 176kts
06-Oct-18 13:59 33.499279 -117.178680 151 8946ft 175kts
06-Oct-18 14:00 33.456511 -117.157232 179 8941ft 165kts
06-Oct-18 14:01 33.411226 -117.149713 179 8940ft 163kts
06-Oct-18 14:02 33.366402 -117.141255 177 8945ft 163kts
06-Oct-18 14:03 33.321823 -117.130446 173 8950ft 164kts
06-Oct-18 14:04 33.277427 -117.117778 175 8956ft 163kts
06-Oct-18 14:05 33.233354 -117.106873 175 8945ft 164kts
06-Oct-18 14:06 33.190210 -117.090603 135 8944ft 174kts
06-Oct-18 14:07 33.184096 -117.034007 86 8944ft 176kts
06-Oct-18 14:08 33.183750 -116.976138 92 8949ft 173kts
06-Oct-18 14:09 33.178449 -116.919907 98 8953ft 168kts
06-Oct-18 14:10 33.171794 -116.865249 98 8956ft 165kts
06-Oct-18 14:11 33.165124 -116.811193 98 8956ft 164kts
06-Oct-18 14:12 33.158505 -116.757435 98 8957ft 164kts
06-Oct-18 14:13 33.151881 -116.703556 98 8957ft 164kts
06-Oct-18 14:14 33.145270 -116.649713 98 8957ft 164kts
06-Oct-18 14:15 33.139827 -116.595772 94 8953ft 164kts
06-Oct-18 14:16 33.127396 -116.545885 133 8954ft 161kts
06-Oct-18 14:17 33.115321 -116.499373 57 8960ft 154kts
06-Oct-18 14:18 33.149715 -116.499172 295 8943ft 144kts
06-Oct-18 14:19 33.154481 -116.536490 236 8220ft 123kts
06-Oct-18 14:20 33.140964 -116.570848 246 7634ft 103kts
06-Oct-18 14:21 33.132889 -116.601488 245 7606ft 95kts
06-Oct-18 14:22 33.124139 -116.633983 255 7086ft 106kts
06-Oct-18 14:23 33.114722 -116.669921 246 5935ft 112kts
06-Oct-18 14:24 33.102845 -116.701775 242 5034ft 100kts
06-Oct-18 14:25 33.093570 -116.731264 242 5067ft 92kts
06-Oct-18 14:26 33.083460 -116.759718 244 5098ft 92kts
06-Oct-18 14:27 33.075466 -116.788765 247 5125ft 93kts
06-Oct-18 14:28 33.066883 -116.816543 244 4544ft 86kts
06-Oct-18 14:29 33.057426 -116.842339 247 3896ft 83kts
06-Oct-18 14:30 33.049305 -116.870161 245 3379ft 94kts
06-Oct-18 14:31 33.037749 -116.895992 229 2239ft 99kts
06-Oct-18 14:32 33.040143 -116.919914 343 1398ft 12kts
06-Oct-18 14:33 33.040328 -116.919944 7 1398ft 0kts
06-Oct-18 14:34 33.040328 -116.919944 7 1398ft 0kts
06-Oct-18 14:35 33.040328 -116.919944 7 1398ft 0kts
06-Oct-18 14:36 33.040328 -116.919944 7 1398ft 0kts
06-Oct-18 14:37 33.040328 -116.919944 7 1398ft 0kts
06-Oct-18 14:38 33.040926 -116.918736 146 1399ft 0kts
06-Oct-18 14:39 33.040925 -116.918735 146 1399ft 0kts
06-Oct-18 14:40 33.040925 -116.918735 146 1399ft 0kts
06-Oct-18 14:41 33.040925 -116.918735 146 1399ft 0kts
06-Oct-18 14:42 33.040925 -116.918735 146 1399ft 0kts
06-Oct-18 14:43 33.040925 -116.918735 146 1399ft 0kts
06-Oct-18 14:44 33.040925 -116.918735 146 1399ft 0kts
06-Oct-18 14:45 33.040925 -116.918735 146 1399ft 0kts
06-Oct-18 14:46 33.040925 -116.918735 146 1399ft 0kts
06-Oct-18 14:47 33.040925 -116.918735 146 1399ft 0kts

Navigation Log

Ident Type
1. KSBD Airport
2. PDZ Navaid
3. NIKKL Fix
4. WESIN Fix
5. TANNR Fix
6. DEGLE Fix
7. ROBNN Fix
8. BONDO Fix
9. JLI Navaid
10. KRNM Airport